Time;durP1;ratioP1;P1;durP2;ratioP2;P2;SDS_P1;SDS_P2;PMS_P1;PMS_P2;Temp;Humidity;BMP_temperature;BMP_pressure;BME280_temperature;BME280_humidity;BME280_pressure;Samples;Min_cycle;Max_cycle;Signal;HPM_P1;HPM_P2
2022/12/07 00:01:26;;;;;;;45.47;24.38;;;;;;;;;;5154308;27;20616;-67
2022/12/07 00:03:52;;;;;;;43.95;24.58;;;;;;;;;;5145633;27;20019;-68
2022/12/07 00:06:18;;;;;;;58.40;25.27;;;;;;;;;;5150691;27;20023;-67
2022/12/07 00:08:44;;;;;;;49.70;25.15;;;;;;;;;;5145247;27;20698;-67
2022/12/07 00:11:11;;;;;;;44.25;25.20;;;;;;;;;;5152695;27;20027;-68
2022/12/07 00:13:36;;;;;;;46.38;23.75;;;;;;;;;;5152255;27;20027;-68
2022/12/07 00:16:06;;;;;;;75.05;25.50;;;;;;;;;;5132072;27;20068;-68
2022/12/07 00:18:31;;;;;;;46.28;24.45;;;;;;;;;;5129035;27;20047;-67
2022/12/07 00:21:09;;;;;;;50.47;24.63;;;;;;;;;;5128922;27;20043;-68
2022/12/07 00:23:34;;;;;;;43.10;22.98;;;;;;;;;;5131194;27;20030;-69
2022/12/07 00:26:03;;;;;;;60.30;24.58;;;;;;;;;;5122196;27;20109;-68
2022/12/07 00:28:28;;;;;;;76.68;24.50;;;;;;;;;;5130742;27;20108;-70
2022/12/07 00:30:59;;;;;;;118.47;25.60;;;;;;;;;;5129599;27;20561;-70
2022/12/07 00:33:24;;;;;;;101.55;25.17;;;;;;;;;;5130383;27;20271;-70
2022/12/07 00:35:54;;;;;;;64.97;22.03;;;;;;;;;;5129331;27;20045;-67
2022/12/07 00:38:20;;;;;;;56.05;22.27;;;;;;;;;;5131532;27;20019;-69
2022/12/07 00:40:53;;;;;;;63.80;20.80;;;;;;;;;;5132286;27;20031;-69
2022/12/07 00:43:18;;;;;;;96.95;22.02;;;;;;;;;;5128923;27;20034;-68
2022/12/07 00:45:43;;;;;;;84.30;23.00;;;;;;;;;;5130323;27;20042;-68
2022/12/07 00:48:08;;;;;;;43.47;20.47;;;;;;;;;;5132593;27;20015;-68
2022/12/07 00:50:34;;;;;;;46.83;20.83;;;;;;;;;;5131744;27;20038;-68
2022/12/07 00:52:59;;;;;;;51.23;21.50;;;;;;;;;;5129934;27;20030;-67
2022/12/07 00:55:24;;;;;;;50.17;21.60;;;;;;;;;;5129606;27;20950;-68
2022/12/07 00:57:49;;;;;;;54.73;20.17;;;;;;;;;;5128373;27;20034;-68
2022/12/07 01:00:15;;;;;;;46.97;19.50;;;;;;;;;;5127280;27;20023;-67
2022/12/07 01:02:40;;;;;;;58.58;19.80;;;;;;;;;;5125035;27;20279;-68
2022/12/07 01:05:06;;;;;;;51.97;18.80;;;;;;;;;;5123526;27;20125;-68
2022/12/07 01:07:31;;;;;;;37.83;19.00;;;;;;;;;;5129269;27;20267;-68
2022/12/07 01:09:56;;;;;;;55.10;19.63;;;;;;;;;;5126795;27;20371;-68
2022/12/07 01:12:21;;;;;;;58.67;19.47;;;;;;;;;;5128165;27;20045;-68
2022/12/07 01:14:47;;;;;;;72.80;18.33;;;;;;;;;;5138393;27;20047;-67
2022/12/07 01:17:12;;;;;;;46.97;17.07;;;;;;;;;;5152358;27;20025;-68
2022/12/07 01:19:37;;;;;;;43.13;16.03;;;;;;;;;;5129566;27;20794;-68
2022/12/07 01:22:02;;;;;;;40.73;15.50;;;;;;;;;;5152477;27;20481;-68
2022/12/07 01:24:28;;;;;;;50.43;16.50;;;;;;;;;;5151021;27;20105;-68
2022/12/07 01:26:53;;;;;;;48.73;14.97;;;;;;;;;;5150022;27;20282;-67
2022/12/07 01:29:18;;;;;;;46.23;15.03;;;;;;;;;;5131703;27;20262;-68
2022/12/07 01:31:43;;;;;;;51.47;13.67;;;;;;;;;;5148318;27;20679;-68
2022/12/07 01:34:09;;;;;;;62.97;12.53;;;;;;;;;;5147944;27;20491;-67
2022/12/07 01:36:35;;;;;;;48.25;12.73;;;;;;;;;;5149218;27;20480;-68
2022/12/07 01:39:01;;;;;;;43.70;12.48;;;;;;;;;;5133045;27;20054;-68
2022/12/07 01:41:28;;;;;;;46.78;12.50;;;;;;;;;;5149957;27;20018;-68
2022/12/07 01:44:12;;;;;;;32.15;12.30;;;;;;;;;;5128393;27;20121;-68
2022/12/07 01:46:38;;;;;;;19.35;12.50;;;;;;;;;;5149512;27;20026;-67
2022/12/07 01:49:05;;;;;;;28.65;12.20;;;;;;;;;;5152644;27;20055;-67
2022/12/07 01:51:30;;;;;;;27.65;11.63;;;;;;;;;;5142700;27;20038;-67
2022/12/07 01:53:56;;;;;;;41.95;13.50;;;;;;;;;;5148514;27;20027;-66
2022/12/07 01:56:24;;;;;;;63.28;14.02;;;;;;;;;;5149181;27;20105;-67
2022/12/07 01:58:49;;;;;;;39.00;13.85;;;;;;;;;;5149439;27;20031;-65
2022/12/07 02:01:15;;;;;;;50.83;13.57;;;;;;;;;;5144490;27;20030;-68
2022/12/07 02:03:41;;;;;;;43.75;13.23;;;;;;;;;;5148570;27;20022;-68
2022/12/07 02:06:07;;;;;;;44.97;14.18;;;;;;;;;;5150877;27;20065;-68
2022/12/07 02:08:33;;;;;;;62.17;17.95;;;;;;;;;;5129183;27;20476;-67
2022/12/07 02:10:59;;;;;;;44.60;16.95;;;;;;;;;;5149315;27;20029;-68
2022/12/07 02:13:26;;;;;;;26.58;15.10;;;;;;;;;;5131754;27;20058;-67
2022/12/07 02:15:51;;;;;;;43.50;16.08;;;;;;;;;;5123207;27;20043;-67
2022/12/07 02:18:29;;;;;;;72.33;16.43;;;;;;;;;;5149733;27;20033;-67
2022/12/07 02:20:54;;;;;;;56.20;17.17;;;;;;;;;;5146686;27;20031;-67
2022/12/07 02:23:19;;;;;;;95.27;16.17;;;;;;;;;;5151787;27;20026;-67
2022/12/07 02:26:03;;;;;;;47.77;14.77;;;;;;;;;;5150708;27;20014;-68
2022/12/07 02:28:36;;;;;;;328.48;28.10;;;;;;;;;;5132770;27;20498;-68
2022/12/07 02:31:10;;;;;;;54.00;14.70;;;;;;;;;;5149386;27;20392;-68
2022/12/07 02:33:36;;;;;;;48.92;14.85;;;;;;;;;;5128156;27;20034;-68
2022/12/07 02:36:02;;;;;;;43.33;13.90;;;;;;;;;;5151308;27;20067;-69
2022/12/07 02:38:42;;;;;;;50.97;13.90;;;;;;;;;;5125314;27;20027;-68
2022/12/07 02:41:11;;;;;;;66.13;13.45;;;;;;;;;;5145858;27;20148;-68
2022/12/07 02:43:40;;;;;;;98.77;13.03;;;;;;;;;;5147828;27;20072;-69
2022/12/07 02:46:08;;;;;;;51.72;11.43;;;;;;;;;;5127514;27;20275;-68
2022/12/07 02:48:33;;;;;;;65.30;11.82;;;;;;;;;;5153386;27;20023;-68
2022/12/07 02:50:59;;;;;;;92.05;13.27;;;;;;;;;;5152252;27;20023;-68
2022/12/07 02:53:30;;;;;;;49.58;12.68;;;;;;;;;;5152171;27;20018;-68
2022/12/07 02:55:56;;;;;;;55.47;13.32;;;;;;;;;;5155100;27;20046;-68
2022/12/07 02:58:41;;;;;;;51.50;13.45;;;;;;;;;;5148207;27;20548;-68
2022/12/07 03:01:25;;;;;;;56.30;13.57;;;;;;;;;;5093368;27;20107;-68
2022/12/07 03:03:56;;;;;;;41.30;14.00;;;;;;;;;;5149621;27;20044;-68
2022/12/07 03:06:29;;;;;;;48.38;15.10;;;;;;;;;;5142474;27;20121;-67
2022/12/07 03:08:57;;;;;;;37.03;14.90;;;;;;;;;;5149998;27;20047;-68
2022/12/07 03:11:22;;;;;;;30.00;13.63;;;;;;;;;;5154369;27;20027;-67
2022/12/07 03:13:50;;;;;;;29.87;14.10;;;;;;;;;;5131883;27;20594;-68
2022/12/07 03:16:16;;;;;;;28.20;14.38;;;;;;;;;;5128340;27;20113;-68
2022/12/07 03:18:47;;;;;;;27.27;14.40;;;;;;;;;;5155021;27;20147;-68
2022/12/07 03:21:15;;;;;;;31.65;15.40;;;;;;;;;;5151576;27;20370;-68
2022/12/07 03:23:42;;;;;;;31.27;16.20;;;;;;;;;;5154850;27;20045;-68
2022/12/07 03:26:09;;;;;;;28.30;15.13;;;;;;;;;;5153860;27;20190;-68
2022/12/07 03:28:37;;;;;;;42.92;15.68;;;;;;;;;;5132854;27;20027;-68
2022/12/07 03:31:12;;;;;;;50.13;15.05;;;;;;;;;;5145877;27;20054;-68
2022/12/07 03:33:43;;;;;;;28.85;14.38;;;;;;;;;;5147348;27;20079;-68
2022/12/07 03:36:14;;;;;;;31.67;15.00;;;;;;;;;;5126375;27;20433;-70
2022/12/07 03:38:40;;;;;;;43.92;16.13;;;;;;;;;;5149702;27;20163;-67
2022/12/07 03:41:11;;;;;;;27.13;14.57;;;;;;;;;;5131497;27;20121;-66
2022/12/07 03:43:36;;;;;;;24.90;14.05;;;;;;;;;;5152763;27;20049;-69
2022/12/07 03:46:28;;;;;;;36.00;14.10;;;;;;;;;;5154462;27;20019;-69
2022/12/07 03:48:53;;;;;;;54.03;14.93;;;;;;;;;;5145381;27;20035;-68
2022/12/07 03:51:21;;;;;;;38.40;14.50;;;;;;;;;;5153205;27;20160;-68
2022/12/07 03:53:51;;;;;;;51.15;15.77;;;;;;;;;;5152608;27;20049;-69
2022/12/07 03:56:17;;;;;;;31.95;15.02;;;;;;;;;;5149760;27;20026;-69
2022/12/07 03:58:42;;;;;;;42.63;14.35;;;;;;;;;;5152797;27;20056;-70
2022/12/07 04:01:08;;;;;;;33.85;15.20;;;;;;;;;;5151618;27;20500;-67
2022/12/07 04:03:33;;;;;;;46.70;14.35;;;;;;;;;;5128875;27;20031;-70
2022/12/07 04:05:58;;;;;;;31.60;15.37;;;;;;;;;;5152845;27;20023;-69
2022/12/07 04:08:24;;;;;;;52.22;15.13;;;;;;;;;;5153237;27;20046;-70
2022/12/07 04:10:49;;;;;;;32.60;15.53;;;;;;;;;;5150630;27;20022;-69
2022/12/07 04:13:14;;;;;;;29.05;14.88;;;;;;;;;;5129166;27;20035;-69
2022/12/07 04:15:40;;;;;;;28.57;15.07;;;;;;;;;;5152456;27;20042;-69
2022/12/07 04:18:05;;;;;;;31.17;14.83;;;;;;;;;;5152873;27;20034;-67
2022/12/07 04:20:30;;;;;;;40.03;14.52;;;;;;;;;;5149357;27;20823;-69
2022/12/07 04:22:55;;;;;;;43.03;15.20;;;;;;;;;;5139079;27;20049;-67
2022/12/07 04:25:21;;;;;;;67.40;14.65;;;;;;;;;;5124664;27;20071;-66
2022/12/07 04:27:46;;;;;;;53.58;16.60;;;;;;;;;;5125608;27;20023;-69
2022/12/07 04:30:11;;;;;;;54.57;15.83;;;;;;;;;;5127415;27;20054;-69
2022/12/07 04:32:37;;;;;;;37.80;14.40;;;;;;;;;;5129677;27;20054;-66
2022/12/07 04:35:02;;;;;;;38.13;13.35;;;;;;;;;;5150809;27;20023;-68
2022/12/07 04:37:28;;;;;;;27.95;12.95;;;;;;;;;;5150595;27;20034;-69
2022/12/07 04:39:53;;;;;;;44.33;13.40;;;;;;;;;;5150728;27;20035;-67
2022/12/07 04:42:18;;;;;;;34.60;13.45;;;;;;;;;;5129625;27;20277;-68
2022/12/07 04:44:44;;;;;;;57.97;14.70;;;;;;;;;;5153236;27;20353;-68
2022/12/07 04:47:09;;;;;;;45.65;13.55;;;;;;;;;;5149106;27;20019;-68
2022/12/07 04:49:34;;;;;;;43.83;13.73;;;;;;;;;;5152338;27;20034;-68
2022/12/07 04:52:00;;;;;;;105.63;21.43;;;;;;;;;;5149343;27;20738;-67
2022/12/07 04:54:26;;;;;;;93.68;22.83;;;;;;;;;;5142362;27;20278;-67
2022/12/07 04:56:51;;;;;;;54.47;18.73;;;;;;;;;;5148416;27;20034;-69
2022/12/07 04:59:17;;;;;;;75.83;18.07;;;;;;;;;;5147960;27;20411;-70
2022/12/07 05:01:42;;;;;;;66.55;18.60;;;;;;;;;;5142697;27;20278;-70
2022/12/07 05:04:08;;;;;;;57.10;19.73;;;;;;;;;;5147045;27;20101;-70
2022/12/07 05:06:33;;;;;;;39.05;17.02;;;;;;;;;;5147681;27;20098;-69
2022/12/07 05:08:58;;;;;;;32.97;16.92;;;;;;;;;;5151220;27;20023;-69
2022/12/07 05:11:39;;;;;;;34.70;17.20;;;;;;;;;;5149641;27;20030;-70
2022/12/07 05:14:06;;;;;;;39.22;17.88;;;;;;;;;;5149236;27;20188;-69
2022/12/07 05:16:32;;;;;;;35.55;17.63;;;;;;;;;;5150576;27;20041;-70
2022/12/07 05:18:57;;;;;;;31.13;15.47;;;;;;;;;;5149551;27;20019;-70
2022/12/07 05:21:22;;;;;;;35.30;15.32;;;;;;;;;;5150590;27;20110;-69
2022/12/07 05:23:48;;;;;;;38.13;15.43;;;;;;;;;;5129244;27;20050;-69
2022/12/07 05:26:13;;;;;;;38.60;16.10;;;;;;;;;;5145777;27;20033;-68
2022/12/07 05:28:38;;;;;;;41.83;17.35;;;;;;;;;;5126228;27;20098;-68
2022/12/07 05:31:04;;;;;;;55.43;18.10;;;;;;;;;;5151103;27;20100;-69
2022/12/07 05:33:29;;;;;;;38.85;16.08;;;;;;;;;;5149368;27;20273;-69
2022/12/07 05:35:54;;;;;;;39.17;17.13;;;;;;;;;;5131867;27;20027;-69
2022/12/07 05:38:19;;;;;;;84.87;17.83;;;;;;;;;;5130275;27;20054;-69
2022/12/07 05:40:44;;;;;;;64.90;18.73;;;;;;;;;;5148370;27;20038;-68
2022/12/07 05:43:10;;;;;;;78.53;19.27;;;;;;;;;;5150090;27;20018;-69
2022/12/07 05:45:35;;;;;;;61.65;18.10;;;;;;;;;;5128766;27;20776;-69
2022/12/07 05:48:00;;;;;;;61.80;16.87;;;;;;;;;;5149854;27;20022;-69
2022/12/07 05:50:26;;;;;;;65.57;17.27;;;;;;;;;;5146045;27;21332;-68
2022/12/07 05:52:51;;;;;;;84.35;16.85;;;;;;;;;;5147640;27;20041;-69
2022/12/07 05:55:16;;;;;;;64.67;17.37;;;;;;;;;;5131404;27;20018;-69
2022/12/07 05:59:22;;;;;;;71.37;16.87;;;;;;;;;;5150387;27;20266;-69
2022/12/07 06:00:26;;;;;;;61.67;15.60;;;;;;;;;;5152403;27;20314;-69
2022/12/07 06:02:52;;;;;;;58.40;15.53;;;;;;;;;;5128438;27;20510;-69
2022/12/07 06:05:17;;;;;;;44.03;15.43;;;;;;;;;;5150108;27;20456;-69
2022/12/07 06:07:42;;;;;;;47.30;15.07;;;;;;;;;;5149759;27;20054;-69
2022/12/07 06:10:07;;;;;;;51.47;14.77;;;;;;;;;;5128114;27;20274;-69
2022/12/07 06:12:38;;;;;;;48.03;15.18;;;;;;;;;;5146736;27;20019;-69
2022/12/07 06:15:03;;;;;;;45.92;14.82;;;;;;;;;;5127120;27;20050;-69
2022/12/07 06:17:28;;;;;;;41.53;13.98;;;;;;;;;;5151734;27;20241;-69
2022/12/07 06:19:53;;;;;;;55.07;14.00;;;;;;;;;;5146021;27;20026;-70
2022/12/07 06:22:19;;;;;;;44.10;12.93;;;;;;;;;;5132901;27;20284;-69
2022/12/07 06:24:44;;;;;;;41.28;12.18;;;;;;;;;;5132781;27;20270;-69
2022/12/07 06:27:10;;;;;;;40.42;12.90;;;;;;;;;;5151366;27;20022;-69
2022/12/07 06:29:35;;;;;;;43.25;11.23;;;;;;;;;;5149286;27;20038;-69
2022/12/07 06:32:01;;;;;;;49.47;11.25;;;;;;;;;;5150822;27;20045;-69
2022/12/07 06:34:26;;;;;;;628.78;73.72;;;;;;;;;;5125810;27;20637;-69
2022/12/07 06:36:53;;;;;;;39.65;12.80;;;;;;;;;;5128888;27;20029;-70
2022/12/07 06:39:19;;;;;;;40.72;13.25;;;;;;;;;;5148194;27;20082;-69
2022/12/07 06:41:44;;;;;;;42.53;12.48;;;;;;;;;;5129673;27;20051;-70
2022/12/07 06:44:10;;;;;;;37.80;10.48;;;;;;;;;;5131445;27;20039;-69
2022/12/07 06:46:35;;;;;;;65.20;11.70;;;;;;;;;;5123745;27;20030;-69
2022/12/07 06:49:00;;;;;;;32.95;11.18;;;;;;;;;;5147710;27;20071;-69
2022/12/07 06:51:26;;;;;;;57.03;12.80;;;;;;;;;;5122630;27;20470;-69
2022/12/07 06:53:51;;;;;;;37.95;14.02;;;;;;;;;;5130129;27;20464;-68
2022/12/07 06:56:16;;;;;;;47.60;16.10;;;;;;;;;;5148084;27;20054;-69
2022/12/07 06:58:42;;;;;;;49.57;15.43;;;;;;;;;;5147269;27;20286;-69
2022/12/07 07:01:11;;;;;;;53.63;14.67;;;;;;;;;;5143931;27;20379;-69
2022/12/07 07:03:36;;;;;;;49.05;15.57;;;;;;;;;;5122165;27;20643;-69
2022/12/07 07:06:01;;;;;;;43.10;15.13;;;;;;;;;;5150404;27;20031;-69
2022/12/07 07:08:26;;;;;;;49.87;15.37;;;;;;;;;;5150226;27;20270;-69
2022/12/07 07:10:52;;;;;;;37.17;14.40;;;;;;;;;;5146190;27;20019;-68
2022/12/07 07:13:17;;;;;;;37.93;14.67;;;;;;;;;;5129945;27;20026;-69
2022/12/07 07:15:42;;;;;;;55.03;15.23;;;;;;;;;;5146254;27;20296;-69
2022/12/07 07:18:07;;;;;;;49.80;14.90;;;;;;;;;;5146057;27;20620;-69
2022/12/07 07:20:33;;;;;;;31.40;14.70;;;;;;;;;;5130565;27;20476;-69
2022/12/07 07:22:58;;;;;;;36.43;14.77;;;;;;;;;;5128586;27;20309;-69
2022/12/07 07:25:23;;;;;;;33.33;13.10;;;;;;;;;;5150844;27;20258;-69
2022/12/07 07:27:48;;;;;;;41.40;13.80;;;;;;;;;;5128862;27;20031;-69
2022/12/07 07:30:14;;;;;;;31.00;12.17;;;;;;;;;;5153523;27;20019;-69
2022/12/07 07:32:39;;;;;;;36.17;12.88;;;;;;;;;;5151725;27;20266;-70
2022/12/07 07:35:04;;;;;;;33.10;12.52;;;;;;;;;;5154295;27;20110;-69
2022/12/07 07:37:30;;;;;;;40.95;14.80;;;;;;;;;;5133294;27;20029;-69
2022/12/07 07:39:55;;;;;;;47.70;18.03;;;;;;;;;;5150938;27;20468;-69
2022/12/07 07:42:20;;;;;;;54.10;19.70;;;;;;;;;;5131718;27;20356;-70
2022/12/07 07:44:45;;;;;;;56.07;19.03;;;;;;;;;;5154915;27;20026;-70
2022/12/07 07:47:11;;;;;;;51.70;16.73;;;;;;;;;;5151615;27;20740;-69
2022/12/07 07:49:36;;;;;;;49.30;17.30;;;;;;;;;;5133157;27;20332;-69
2022/12/07 07:52:02;;;;;;;57.53;17.48;;;;;;;;;;5152677;27;20468;-68
2022/12/07 07:54:27;;;;;;;54.38;18.55;;;;;;;;;;5133983;27;20033;-69
2022/12/07 07:56:52;;;;;;;67.87;21.93;;;;;;;;;;5151701;27;20023;-68
2022/12/07 07:59:18;;;;;;;65.03;21.02;;;;;;;;;;5149091;27;20363;-69
2022/12/07 08:01:43;;;;;;;74.47;22.52;;;;;;;;;;5129681;27;20025;-68
2022/12/07 08:04:08;;;;;;;70.90;20.97;;;;;;;;;;5150880;27;20041;-68
2022/12/07 08:06:34;;;;;;;70.35;20.13;;;;;;;;;;5132300;27;20271;-69
2022/12/07 08:08:59;;;;;;;74.63;21.02;;;;;;;;;;5148678;27;20096;-69
2022/12/07 08:11:24;;;;;;;64.45;19.58;;;;;;;;;;5130355;27;20136;-69
2022/12/07 08:13:50;;;;;;;61.22;21.50;;;;;;;;;;5150395;27;20580;-69
2022/12/07 08:16:15;;;;;;;72.37;23.87;;;;;;;;;;5151847;27;20473;-69
2022/12/07 08:18:41;;;;;;;69.22;22.60;;;;;;;;;;5132940;27;20306;-68
2022/12/07 08:21:08;;;;;;;76.55;23.38;;;;;;;;;;5148854;27;20476;-69
2022/12/07 08:23:34;;;;;;;69.80;22.70;;;;;;;;;;5133476;27;20030;-69
2022/12/07 08:26:03;;;;;;;68.72;22.77;;;;;;;;;;5149444;27;20117;-69
2022/12/07 08:28:29;;;;;;;76.47;24.50;;;;;;;;;;5144453;27;20012;-69
2022/12/07 08:31:01;;;;;;;74.35;24.15;;;;;;;;;;5150168;27;20034;-69
2022/12/07 08:33:26;;;;;;;67.70;22.70;;;;;;;;;;5150573;27;20102;-70
2022/12/07 08:35:51;;;;;;;70.97;23.00;;;;;;;;;;5133792;27;20109;-69
2022/12/07 08:38:17;;;;;;;68.53;22.37;;;;;;;;;;5151360;27;20015;-70
2022/12/07 08:40:42;;;;;;;58.60;21.77;;;;;;;;;;5146434;27;20267;-70
2022/12/07 08:43:07;;;;;;;62.87;22.63;;;;;;;;;;5130494;27;20023;-69
2022/12/07 08:45:35;;;;;;;59.90;21.07;;;;;;;;;;5149704;27;20710;-70
2022/12/07 08:48:10;;;;;;;64.25;23.73;;;;;;;;;;5142690;27;20496;-69
2022/12/07 08:50:36;;;;;;;55.38;22.45;;;;;;;;;;5132376;27;20049;-70
2022/12/07 08:53:02;;;;;;;62.50;23.70;;;;;;;;;;5151252;27;20023;-69
2022/12/07 08:55:28;;;;;;;62.55;23.98;;;;;;;;;;5124181;27;20388;-70
2022/12/07 08:57:54;;;;;;;64.72;24.25;;;;;;;;;;5129272;27;20121;-69
2022/12/07 09:00:19;;;;;;;67.55;24.90;;;;;;;;;;5129693;27;20457;-69
2022/12/07 09:02:45;;;;;;;60.20;24.15;;;;;;;;;;5147834;27;20372;-70
2022/12/07 09:05:11;;;;;;;57.80;23.35;;;;;;;;;;5132836;27;20030;-69
2022/12/07 09:07:37;;;;;;;66.93;25.48;;;;;;;;;;5150099;27;20023;-69
2022/12/07 09:10:02;;;;;;;54.55;23.13;;;;;;;;;;5144322;27;20042;-70
2022/12/07 09:12:27;;;;;;;55.05;22.83;;;;;;;;;;5132522;27;20055;-70
2022/12/07 09:14:53;;;;;;;49.77;21.80;;;;;;;;;;5150876;27;20055;-71
2022/12/07 09:17:18;;;;;;;50.30;21.10;;;;;;;;;;5147635;27;20035;-69
2022/12/07 09:19:43;;;;;;;55.33;22.60;;;;;;;;;;5150814;27;20022;-71
2022/12/07 09:22:09;;;;;;;53.78;23.00;;;;;;;;;;5129822;27;20415;-71
2022/12/07 09:24:34;;;;;;;47.95;20.80;;;;;;;;;;5148015;27;20014;-70
2022/12/07 09:26:59;;;;;;;44.90;19.25;;;;;;;;;;5151395;27;20107;-70
2022/12/07 09:29:25;;;;;;;49.03;21.60;;;;;;;;;;5146552;27;20015;-70
2022/12/07 09:31:51;;;;;;;39.83;19.27;;;;;;;;;;5151935;27;20026;-70
2022/12/07 09:34:16;;;;;;;38.80;18.30;;;;;;;;;;5147038;27;20441;-70
2022/12/07 09:36:42;;;;;;;36.33;17.13;;;;;;;;;;5151882;27;20023;-70
2022/12/07 09:39:07;;;;;;;32.72;16.38;;;;;;;;;;5149170;27;20049;-71
2022/12/07 09:41:33;;;;;;;36.77;16.37;;;;;;;;;;5151462;27;20828;-70
2022/12/07 09:44:03;;;;;;;37.50;15.77;;;;;;;;;;5146093;27;20274;-70
2022/12/07 09:46:30;;;;;;;34.30;15.82;;;;;;;;;;5150356;27;20492;-69
2022/12/07 09:48:55;;;;;;;34.97;16.70;;;;;;;;;;5125784;27;20049;-70
2022/12/07 09:51:21;;;;;;;35.50;17.27;;;;;;;;;;5149003;27;20030;-69
2022/12/07 09:53:47;;;;;;;39.10;17.27;;;;;;;;;;5148362;27;20029;-70
2022/12/07 09:56:13;;;;;;;33.58;16.17;;;;;;;;;;5148003;27;20097;-69
2022/12/07 09:58:39;;;;;;;31.40;15.38;;;;;;;;;;5127685;27;20470;-70
2022/12/07 10:01:07;;;;;;;34.38;16.17;;;;;;;;;;5149614;27;20029;-71
2022/12/07 10:03:33;;;;;;;32.22;15.02;;;;;;;;;;5131379;27;20019;-70
2022/12/07 10:05:58;;;;;;;35.05;15.27;;;;;;;;;;5130280;27;20026;-71
2022/12/07 10:08:24;;;;;;;33.55;15.13;;;;;;;;;;5151382;27;20027;-70
2022/12/07 10:10:51;;;;;;;28.50;14.70;;;;;;;;;;5150589;27;20054;-69
2022/12/07 10:13:21;;;;;;;31.02;15.48;;;;;;;;;;5130084;27;20083;-70
2022/12/07 10:15:46;;;;;;;;;;;;;;;;;;5131662;27;20512;-70
2022/12/07 10:18:35;;;;;;;26.87;12.40;;;;;;;;;;5147017;27;19990;-72
2022/12/07 10:21:01;;;;;;;;;;;;;;;;;;5144038;27;20727;-69
2022/12/07 10:23:26;;;;;;;27.43;12.77;;;;;;;;;;5149060;27;19960;-69
2022/12/07 10:25:54;;;;;;;30.40;14.50;;;;;;;;;;5146197;27;20057;-69
2022/12/07 10:28:20;;;;;;;29.13;13.50;;;;;;;;;;5149125;27;20025;-69
2022/12/07 10:30:59;;;;;;;29.15;14.45;;;;;;;;;;5148602;27;20198;-69
2022/12/07 10:33:31;;;;;;;28.02;14.48;;;;;;;;;;5148494;27;20031;-72
2022/12/07 10:35:56;;;;;;;26.95;13.25;;;;;;;;;;5149274;27;20035;-72
2022/12/07 10:38:21;;;;;;;27.67;13.97;;;;;;;;;;5149542;27;20023;-71
2022/12/07 10:40:46;;;;;;;28.88;13.13;;;;;;;;;;5147942;27;20689;-72
2022/12/07 10:43:12;;;;;;;24.73;12.93;;;;;;;;;;5149425;27;20415;-71
2022/12/07 10:45:52;;;;;;;22.60;11.67;;;;;;;;;;5148868;27;20376;-71
2022/12/07 10:48:36;;;;;;;22.63;12.25;;;;;;;;;;5142756;27;20426;-71
2022/12/07 10:51:04;;;;;;;24.98;11.75;;;;;;;;;;5148190;27;20014;-72
2022/12/07 10:53:42;;;;;;;23.23;11.25;;;;;;;;;;5125155;27;20799;-72
2022/12/07 10:56:13;;;;;;;19.38;11.05;;;;;;;;;;5148598;27;20023;-71
2022/12/07 10:58:45;;;;;;;21.88;11.45;;;;;;;;;;5150540;27;20022;-72
2022/12/07 11:01:16;;;;;;;19.73;11.13;;;;;;;;;;5128649;27;20536;-73
2022/12/07 11:03:44;;;;;;;20.88;11.68;;;;;;;;;;5147741;27;20027;-73
2022/12/07 11:06:13;;;;;;;22.73;12.20;;;;;;;;;;5152477;27;20083;-73
2022/12/07 11:08:51;;;;;;;21.52;11.05;;;;;;;;;;5152886;27;20014;-73
2022/12/07 11:11:22;;;;;;;21.48;11.75;;;;;;;;;;5152089;27;20019;-72
2022/12/07 11:13:52;;;;;;;20.42;10.63;;;;;;;;;;5149019;27;20093;-70
2022/12/07 11:16:27;;;;;;;19.60;10.20;;;;;;;;;;5131149;27;20033;-67
2022/12/07 11:19:01;;;;;;;16.98;9.40;;;;;;;;;;5130845;27;20448;-69
2022/12/07 11:21:31;;;;;;;18.75;9.80;;;;;;;;;;5151310;27;20023;-69
2022/12/07 11:24:19;;;;;;;15.77;8.90;;;;;;;;;;5152201;27;20022;-69
2022/12/07 11:26:57;;;;;;;17.50;9.52;;;;;;;;;;5154171;27;20460;-70
2022/12/07 11:29:34;;;;;;;17.60;9.48;;;;;;;;;;5150835;27;20015;-69
2022/12/07 11:32:19;;;;;;;17.30;8.80;;;;;;;;;;5138300;27;20079;-70
2022/12/07 11:35:03;;;;;;;18.38;9.32;;;;;;;;;;5141502;27;20043;-73
2022/12/07 11:37:33;;;;;;;16.05;8.57;;;;;;;;;;5127977;27;20034;-70
2022/12/07 11:40:11;;;;;;;15.38;8.55;;;;;;;;;;5142549;27;20023;-70
2022/12/07 11:42:38;;;;;;;17.10;8.17;;;;;;;;;;5144607;27;20106;-70
2022/12/07 11:45:24;;;;;;;18.58;8.85;;;;;;;;;;5152303;27;20310;-71
2022/12/07 11:47:52;;;;;;;13.18;7.53;;;;;;;;;;5121028;27;20034;-71
2022/12/07 11:50:23;;;;;;;15.88;7.90;;;;;;;;;;5150822;27;20023;-69
2022/12/07 11:53:00;;;;;;;15.57;9.13;;;;;;;;;;5150432;27;20030;-70
2022/12/07 11:55:44;;;;;;;16.08;9.00;;;;;;;;;;5151793;27;20018;-71
2022/12/07 11:58:21;;;;;;;18.77;9.38;;;;;;;;;;5131772;27;20483;-69
2022/12/07 12:00:48;;;;;;;18.70;9.50;;;;;;;;;;5146781;27;20039;-70
2022/12/07 12:03:18;;;;;;;19.20;9.60;;;;;;;;;;5151837;27;20046;-69
2022/12/07 12:05:44;;;;;;;22.08;8.88;;;;;;;;;;5151565;27;20026;-70
2022/12/07 12:08:15;;;;;;;15.68;8.85;;;;;;;;;;5128803;27;20030;-70
2022/12/07 12:10:49;;;;;;;21.30;10.02;;;;;;;;;;5150072;27;20025;-70
2022/12/07 12:13:14;;;;;;;16.30;9.18;;;;;;;;;;5133717;27;20189;-70
2022/12/07 12:15:47;;;;;;;19.17;9.90;;;;;;;;;;5126650;27;20178;-69
2022/12/07 12:18:22;;;;;;;15.98;9.23;;;;;;;;;;5147507;27;20302;-69
2022/12/07 12:20:50;;;;;;;14.02;8.10;;;;;;;;;;5147641;27;20034;-69
2022/12/07 12:23:15;;;;;;;12.30;7.13;;;;;;;;;;5153664;27;20023;-69
2022/12/07 12:25:44;;;;;;;14.75;7.47;;;;;;;;;;5128862;27;20042;-70
2022/12/07 12:28:24;;;;;;;10.60;6.55;;;;;;;;;;5150370;27;20071;-70
2022/12/07 12:31:06;;;;;;;12.43;6.95;;;;;;;;;;5151504;27;20371;-70
2022/12/07 12:33:32;;;;;;;14.60;7.30;;;;;;;;;;5151982;27;20114;-70
2022/12/07 12:36:15;;;;;;;10.32;5.90;;;;;;;;;;5151618;27;20117;-70
2022/12/07 12:38:50;;;;;;;10.10;5.97;;;;;;;;;;5143903;27;20027;-70
2022/12/07 12:41:33;;;;;;;20.25;9.15;;;;;;;;;;5151067;27;20030;-69
2022/12/07 12:43:59;;;;;;;13.55;7.70;;;;;;;;;;5151218;27;20487;-70
2022/12/07 12:46:33;;;;;;;11.30;6.20;;;;;;;;;;5149406;27;20061;-69
2022/12/07 12:49:17;;;;;;;11.95;6.32;;;;;;;;;;5150545;27;20627;-69
2022/12/07 12:51:43;;;;;;;10.70;6.15;;;;;;;;;;5146802;27;20026;-66
2022/12/07 12:54:18;;;;;;;11.88;6.15;;;;;;;;;;5148168;27;20888;-69
2022/12/07 12:56:43;;;;;;;16.63;7.68;;;;;;;;;;5133714;27;20388;-70
2022/12/07 12:59:28;;;;;;;12.63;7.67;;;;;;;;;;5145609;27;20034;-69
2022/12/07 13:02:06;;;;;;;14.32;7.53;;;;;;;;;;5140500;27;20291;-70
2022/12/07 13:04:49;;;;;;;13.48;8.00;;;;;;;;;;5146661;27;20034;-69
2022/12/07 13:07:34;;;;;;;15.23;7.78;;;;;;;;;;5148941;27;20097;-70
2022/12/07 13:10:01;;;;;;;17.30;8.23;;;;;;;;;;5149525;27;20058;-70
2022/12/07 13:12:26;;;;;;;15.88;8.23;;;;;;;;;;5129942;27;20657;-69
2022/12/07 13:14:56;;;;;;;15.07;8.27;;;;;;;;;;5129091;27;20043;-70
2022/12/07 13:17:30;;;;;;;17.75;8.23;;;;;;;;;;5151556;27;20270;-70
2022/12/07 13:19:55;;;;;;;20.33;9.32;;;;;;;;;;5127178;27;20022;-70
2022/12/07 13:22:42;;;;;;;25.00;10.80;;;;;;;;;;5149941;27;20049;-69
2022/12/07 13:25:12;;;;;;;24.02;9.52;;;;;;;;;;5126164;27;20031;-70
2022/12/07 13:27:40;;;;;;;18.92;8.18;;;;;;;;;;5147205;27;20033;-69
2022/12/07 13:30:18;;;;;;;25.58;10.77;;;;;;;;;;5149619;27;20040;-70
2022/12/07 13:32:50;;;;;;;23.33;10.35;;;;;;;;;;5143937;27;20026;-70
2022/12/07 13:35:28;;;;;;;19.58;9.75;;;;;;;;;;5146281;27;20042;-70
2022/12/07 13:37:53;;;;;;;23.10;10.63;;;;;;;;;;5148916;27;20414;-70
2022/12/07 13:40:19;;;;;;;21.00;11.07;;;;;;;;;;5246951;22;20066;-70
2022/12/07 13:42:45;;;;;;;22.48;11.43;;;;;;;;;;5108003;28;20291;-71
2022/12/07 13:45:48;;;;;;;22.20;10.97;;;;;;;;;;5109305;28;20027;-70
2022/12/07 13:48:34;;;;;;;29.55;13.00;;;;;;;;;;5109658;28;20043;-69
2022/12/07 13:51:01;;;;;;;33.10;14.25;;;;;;;;;;5104563;28;20097;-70
2022/12/07 13:53:30;;;;;;;26.95;13.48;;;;;;;;;;5108734;28;20042;-70
2022/12/07 13:55:56;;;;;;;27.40;13.88;;;;;;;;;;5108527;28;20026;-70
2022/12/07 13:58:22;;;;;;;30.58;14.95;;;;;;;;;;5106476;28;20029;-72
2022/12/07 14:00:47;;;;;;;41.53;17.67;;;;;;;;;;5104293;28;20063;-71
2022/12/07 14:03:12;;;;;;;38.55;19.27;;;;;;;;;;5109956;28;20030;-72
2022/12/07 14:05:38;;;;;;;35.33;16.63;;;;;;;;;;5108098;28;20683;-74
2022/12/07 14:08:05;;;;;;;34.38;15.63;;;;;;;;;;5109037;28;20508;-74
2022/12/07 14:10:53;;;;;;;41.17;17.92;;;;;;;;;;5110200;28;20529;-74
2022/12/07 14:13:39;;;;;;;34.13;16.65;;;;;;;;;;5098985;28;20139;-74
2022/12/07 14:16:25;;;;;;;31.65;15.57;;;;;;;;;;5107141;28;20473;-74
2022/12/07 14:18:51;;;;;;;40.75;16.88;;;;;;;;;;5107221;28;20374;-74
2022/12/07 14:21:18;;;;;;;35.63;15.77;;;;;;;;;;5105409;28;20034;-74
2022/12/07 14:23:43;;;;;;;30.80;14.65;;;;;;;;;;5108546;28;20086;-74
2022/12/07 14:26:12;;;;;;;39.38;14.23;;;;;;;;;;5110152;28;20026;-74